sensor_id;sensor_type;location;lat;lon;timestamp;P1;durP1;ratioP1;P2;durP2;ratioP2
23868;SDS011;12115;47.128;15.422;2023-03-14T00:01:31;3.67;;;2.13;;
23868;SDS011;12115;47.128;15.422;2023-03-14T00:03:58;4.65;;;2.42;;
23868;SDS011;12115;47.128;15.422;2023-03-14T00:06:26;6.55;;;2.78;;
23868;SDS011;12115;47.128;15.422;2023-03-14T00:08:53;4.05;;;2.15;;
23868;SDS011;12115;47.128;15.422;2023-03-14T00:11:21;4.82;;;2.03;;
23868;SDS011;12115;47.128;15.422;2023-03-14T00:13:52;5.43;;;2.55;;
23868;SDS011;12115;47.128;15.422;2023-03-14T00:16:20;5.18;;;2.22;;
23868;SDS011;12115;47.128;15.422;2023-03-14T00:18:51;5.32;;;2.20;;
23868;SDS011;12115;47.128;15.422;2023-03-14T00:21:18;3.67;;;2.05;;
23868;SDS011;12115;47.128;15.422;2023-03-14T00:23:45;4.00;;;2.30;;
23868;SDS011;12115;47.128;15.422;2023-03-14T00:26:14;7.20;;;2.50;;
23868;SDS011;12115;47.128;15.422;2023-03-14T00:28:43;3.20;;;1.92;;
23868;SDS011;12115;47.128;15.422;2023-03-14T00:31:12;3.58;;;2.22;;
23868;SDS011;12115;47.128;15.422;2023-03-14T00:33:41;4.47;;;2.40;;
23868;SDS011;12115;47.128;15.422;2023-03-14T00:36:10;3.88;;;2.47;;
23868;SDS011;12115;47.128;15.422;2023-03-14T00:38:39;3.88;;;2.05;;
23868;SDS011;12115;47.128;15.422;2023-03-14T00:41:11;4.15;;;2.45;;
23868;SDS011;12115;47.128;15.422;2023-03-14T00:43:40;5.68;;;2.65;;
23868;SDS011;12115;47.128;15.422;2023-03-14T00:46:08;4.90;;;2.28;;
23868;SDS011;12115;47.128;15.422;2023-03-14T00:48:36;4.65;;;2.47;;
23868;SDS011;12115;47.128;15.422;2023-03-14T00:51:04;3.38;;;2.28;;
23868;SDS011;12115;47.128;15.422;2023-03-14T00:53:37;5.75;;;2.30;;
23868;SDS011;12115;47.128;15.422;2023-03-14T00:58:35;7.32;;;3.00;;
23868;SDS011;12115;47.128;15.422;2023-03-14T01:01:06;5.43;;;3.00;;
23868;SDS011;12115;47.128;15.422;2023-03-14T01:03:42;6.20;;;3.08;;
23868;SDS011;12115;47.128;15.422;2023-03-14T01:08:38;4.68;;;3.08;;
23868;SDS011;12115;47.128;15.422;2023-03-14T01:11:07;6.10;;;3.15;;
23868;SDS011;12115;47.128;15.422;2023-03-14T01:13:35;6.25;;;3.38;;
23868;SDS011;12115;47.128;15.422;2023-03-14T01:16:04;5.82;;;3.42;;
23868;SDS011;12115;47.128;15.422;2023-03-14T01:18:36;4.88;;;2.80;;
23868;SDS011;12115;47.128;15.422;2023-03-14T01:21:15;5.70;;;2.47;;
23868;SDS011;12115;47.128;15.422;2023-03-14T01:23:47;6.97;;;3.50;;
23868;SDS011;12115;47.128;15.422;2023-03-14T01:26:16;5.07;;;2.83;;
23868;SDS011;12115;47.128;15.422;2023-03-14T01:28:49;7.15;;;2.70;;
23868;SDS011;12115;47.128;15.422;2023-03-14T01:31:18;4.53;;;2.15;;
23868;SDS011;12115;47.128;15.422;2023-03-14T01:33:46;4.68;;;2.65;;
23868;SDS011;12115;47.128;15.422;2023-03-14T01:36:14;6.80;;;2.88;;
23868;SDS011;12115;47.128;15.422;2023-03-14T01:38:43;3.70;;;2.58;;
23868;SDS011;12115;47.128;15.422;2023-03-14T01:41:18;4.63;;;2.30;;
23868;SDS011;12115;47.128;15.422;2023-03-14T01:44:01;5.35;;;2.50;;
23868;SDS011;12115;47.128;15.422;2023-03-14T01:46:47;4.90;;;2.80;;
23868;SDS011;12115;47.128;15.422;2023-03-14T01:52:40;5.28;;;2.30;;
23868;SDS011;12115;47.128;15.422;2023-03-14T01:55:17;4.03;;;2.42;;
23868;SDS011;12115;47.128;15.422;2023-03-14T01:57:55;5.78;;;2.53;;
23868;SDS011;12115;47.128;15.422;2023-03-14T02:00:25;4.70;;;2.13;;
23868;SDS011;12115;47.128;15.422;2023-03-14T02:02:54;4.22;;;2.50;;
23868;SDS011;12115;47.128;15.422;2023-03-14T02:05:34;4.15;;;2.42;;
23868;SDS011;12115;47.128;15.422;2023-03-14T02:08:10;4.60;;;2.25;;
23868;SDS011;12115;47.128;15.422;2023-03-14T02:10:48;4.57;;;2.45;;
23868;SDS011;12115;47.128;15.422;2023-03-14T02:13:23;3.55;;;2.33;;
23868;SDS011;12115;47.128;15.422;2023-03-14T02:16:26;4.38;;;2.20;;
23868;SDS011;12115;47.128;15.422;2023-03-14T02:22:18;4.80;;;2.20;;
23868;SDS011;12115;47.128;15.422;2023-03-14T02:27:59;6.80;;;2.20;;
23868;SDS011;12115;47.128;15.422;2023-03-14T02:30:28;4.60;;;2.42;;
23868;SDS011;12115;47.128;15.422;2023-03-14T02:32:59;3.15;;;1.70;;
23868;SDS011;12115;47.128;15.422;2023-03-14T02:41:18;3.22;;;1.70;;
23868;SDS011;12115;47.128;15.422;2023-03-14T02:43:56;4.10;;;2.10;;
23868;SDS011;12115;47.128;15.422;2023-03-14T02:46:23;5.70;;;1.92;;
23868;SDS011;12115;47.128;15.422;2023-03-14T02:51:21;7.68;;;1.73;;
23868;SDS011;12115;47.128;15.422;2023-03-14T02:53:50;5.97;;;1.83;;
23868;SDS011;12115;47.128;15.422;2023-03-14T02:56:22;4.47;;;2.13;;
23868;SDS011;12115;47.128;15.422;2023-03-14T02:58:49;3.40;;;1.70;;
23868;SDS011;12115;47.128;15.422;2023-03-14T03:01:55;9.98;;;2.17;;
23868;SDS011;12115;47.128;15.422;2023-03-14T03:04:25;3.30;;;1.58;;
23868;SDS011;12115;47.128;15.422;2023-03-14T03:06:52;2.17;;;1.60;;
23868;SDS011;12115;47.128;15.422;2023-03-14T03:09:19;3.72;;;1.65;;
23868;SDS011;12115;47.128;15.422;2023-03-14T03:11:47;2.78;;;1.92;;
23868;SDS011;12115;47.128;15.422;2023-03-14T03:14:18;2.63;;;1.55;;
23868;SDS011;12115;47.128;15.422;2023-03-14T03:16:46;5.18;;;2.03;;
23868;SDS011;12115;47.128;15.422;2023-03-14T03:19:13;5.95;;;1.63;;
23868;SDS011;12115;47.128;15.422;2023-03-14T03:21:40;2.63;;;2.05;;
23868;SDS011;12115;47.128;15.422;2023-03-14T03:24:10;3.42;;;1.70;;
23868;SDS011;12115;47.128;15.422;2023-03-14T03:26:37;5.95;;;1.90;;
23868;SDS011;12115;47.128;15.422;2023-03-14T03:29:07;6.80;;;1.83;;
23868;SDS011;12115;47.128;15.422;2023-03-14T03:31:36;3.17;;;1.70;;
23868;SDS011;12115;47.128;15.422;2023-03-14T03:34:04;5.55;;;2.25;;
23868;SDS011;12115;47.128;15.422;2023-03-14T03:36:32;3.20;;;2.10;;
23868;SDS011;12115;47.128;15.422;2023-03-14T03:38:59;5.60;;;2.17;;
23868;SDS011;12115;47.128;15.422;2023-03-14T03:41:27;4.47;;;1.60;;
23868;SDS011;12115;47.128;15.422;2023-03-14T03:43:54;5.95;;;1.80;;
23868;SDS011;12115;47.128;15.422;2023-03-14T03:46:22;2.58;;;1.73;;
23868;SDS011;12115;47.128;15.422;2023-03-14T03:48:54;3.33;;;1.80;;
23868;SDS011;12115;47.128;15.422;2023-03-14T03:53:52;2.90;;;1.77;;
23868;SDS011;12115;47.128;15.422;2023-03-14T03:56:26;5.10;;;1.88;;
23868;SDS011;12115;47.128;15.422;2023-03-14T03:58:54;5.28;;;2.25;;
23868;SDS011;12115;47.128;15.422;2023-03-14T04:01:23;6.32;;;1.58;;
23868;SDS011;12115;47.128;15.422;2023-03-14T04:03:53;6.03;;;2.03;;
23868;SDS011;12115;47.128;15.422;2023-03-14T04:06:21;4.65;;;2.40;;
23868;SDS011;12115;47.128;15.422;2023-03-14T04:08:50;5.55;;;2.20;;
23868;SDS011;12115;47.128;15.422;2023-03-14T04:11:34;2.10;;;1.63;;
23868;SDS011;12115;47.128;15.422;2023-03-14T04:14:19;4.22;;;1.83;;
23868;SDS011;12115;47.128;15.422;2023-03-14T04:16:52;4.35;;;1.63;;
23868;SDS011;12115;47.128;15.422;2023-03-14T04:19:20;6.47;;;2.80;;
23868;SDS011;12115;47.128;15.422;2023-03-14T04:21:49;6.97;;;2.55;;
23868;SDS011;12115;47.128;15.422;2023-03-14T04:24:18;3.72;;;2.58;;
23868;SDS011;12115;47.128;15.422;2023-03-14T04:26:47;3.53;;;2.25;;
23868;SDS011;12115;47.128;15.422;2023-03-14T04:29:15;3.10;;;2.10;;
23868;SDS011;12115;47.128;15.422;2023-03-14T04:31:44;4.03;;;2.35;;
23868;SDS011;12115;47.128;15.422;2023-03-14T04:34:12;4.70;;;2.15;;
23868;SDS011;12115;47.128;15.422;2023-03-14T04:36:46;2.63;;;1.73;;
23868;SDS011;12115;47.128;15.422;2023-03-14T04:39:17;2.45;;;1.90;;
23868;SDS011;12115;47.128;15.422;2023-03-14T04:41:55;4.10;;;1.90;;
23868;SDS011;12115;47.128;15.422;2023-03-14T04:44:23;6.75;;;2.60;;
23868;SDS011;12115;47.128;15.422;2023-03-14T04:46:52;3.70;;;2.47;;
23868;SDS011;12115;47.128;15.422;2023-03-14T04:49:20;4.80;;;1.98;;
23868;SDS011;12115;47.128;15.422;2023-03-14T04:51:47;6.25;;;2.55;;
23868;SDS011;12115;47.128;15.422;2023-03-14T04:54:17;7.60;;;2.28;;
23868;SDS011;12115;47.128;15.422;2023-03-14T04:56:48;3.60;;;2.58;;
23868;SDS011;12115;47.128;15.422;2023-03-14T04:59:16;4.30;;;2.13;;
23868;SDS011;12115;47.128;15.422;2023-03-14T05:01:43;4.00;;;2.30;;
23868;SDS011;12115;47.128;15.422;2023-03-14T05:04:37;10.45;;;2.63;;
23868;SDS011;12115;47.128;15.422;2023-03-14T05:07:37;6.80;;;2.50;;
23868;SDS011;12115;47.128;15.422;2023-03-14T05:10:30;3.97;;;2.60;;
23868;SDS011;12115;47.128;15.422;2023-03-14T05:13:12;3.65;;;2.15;;
23868;SDS011;12115;47.128;15.422;2023-03-14T05:15:50;4.22;;;2.53;;
23868;SDS011;12115;47.128;15.422;2023-03-14T05:18:36;9.88;;;2.75;;
23868;SDS011;12115;47.128;15.422;2023-03-14T05:24:29;9.30;;;3.40;;
23868;SDS011;12115;47.128;15.422;2023-03-14T05:26:59;5.50;;;3.60;;
23868;SDS011;12115;47.128;15.422;2023-03-14T05:29:46;6.15;;;3.30;;
23868;SDS011;12115;47.128;15.422;2023-03-14T05:32:40;3.88;;;2.70;;
23868;SDS011;12115;47.128;15.422;2023-03-14T05:35:08;6.20;;;2.55;;
23868;SDS011;12115;47.128;15.422;2023-03-14T05:37:58;3.53;;;2.47;;
23868;SDS011;12115;47.128;15.422;2023-03-14T05:41:05;6.78;;;3.47;;
23868;SDS011;12115;47.128;15.422;2023-03-14T05:44:01;3.95;;;2.58;;
23868;SDS011;12115;47.128;15.422;2023-03-14T05:46:57;4.45;;;2.90;;
23868;SDS011;12115;47.128;15.422;2023-03-14T05:49:30;7.32;;;3.05;;
23868;SDS011;12115;47.128;15.422;2023-03-14T05:51:58;4.50;;;2.30;;
23868;SDS011;12115;47.128;15.422;2023-03-14T05:54:25;4.32;;;2.83;;
23868;SDS011;12115;47.128;15.422;2023-03-14T05:57:15;4.80;;;3.05;;
23868;SDS011;12115;47.128;15.422;2023-03-14T06:00:02;5.90;;;2.92;;
23868;SDS011;12115;47.128;15.422;2023-03-14T06:02:46;5.97;;;3.40;;
23868;SDS011;12115;47.128;15.422;2023-03-14T06:05:22;7.45;;;3.28;;
23868;SDS011;12115;47.128;15.422;2023-03-14T06:07:55;7.03;;;2.97;;
23868;SDS011;12115;47.128;15.422;2023-03-14T06:10:23;3.88;;;2.80;;
23868;SDS011;12115;47.128;15.422;2023-03-14T06:12:51;5.32;;;3.22;;
23868;SDS011;12115;47.128;15.422;2023-03-14T06:15:19;8.18;;;3.60;;
23868;SDS011;12115;47.128;15.422;2023-03-14T06:17:49;3.75;;;2.90;;
23868;SDS011;12115;47.128;15.422;2023-03-14T06:20:17;6.43;;;2.80;;
23868;SDS011;12115;47.128;15.422;2023-03-14T06:22:45;6.93;;;2.97;;
23868;SDS011;12115;47.128;15.422;2023-03-14T06:25:13;5.45;;;3.00;;
23868;SDS011;12115;47.128;15.422;2023-03-14T06:27:44;5.40;;;3.00;;
23868;SDS011;12115;47.128;15.422;2023-03-14T06:30:12;4.13;;;2.83;;
23868;SDS011;12115;47.128;15.422;2023-03-14T06:32:39;5.10;;;2.90;;
23868;SDS011;12115;47.128;15.422;2023-03-14T06:35:11;10.70;;;4.05;;
23868;SDS011;12115;47.128;15.422;2023-03-14T06:37:41;9.98;;;3.40;;
23868;SDS011;12115;47.128;15.422;2023-03-14T06:40:10;5.25;;;3.05;;
23868;SDS011;12115;47.128;15.422;2023-03-14T06:42:48;7.50;;;3.13;;
23868;SDS011;12115;47.128;15.422;2023-03-14T06:45:19;5.20;;;2.53;;
23868;SDS011;12115;47.128;15.422;2023-03-14T06:47:47;3.60;;;2.40;;
23868;SDS011;12115;47.128;15.422;2023-03-14T06:50:16;9.80;;;3.00;;
23868;SDS011;12115;47.128;15.422;2023-03-14T06:52:45;6.88;;;2.72;;
23868;SDS011;12115;47.128;15.422;2023-03-14T06:55:19;4.90;;;2.58;;
23868;SDS011;12115;47.128;15.422;2023-03-14T06:57:49;3.97;;;2.20;;
23868;SDS011;12115;47.128;15.422;2023-03-14T07:00:16;8.80;;;2.55;;
23868;SDS011;12115;47.128;15.422;2023-03-14T07:02:53;6.57;;;2.75;;
23868;SDS011;12115;47.128;15.422;2023-03-14T07:05:26;5.18;;;2.70;;
23868;SDS011;12115;47.128;15.422;2023-03-14T07:07:55;5.28;;;2.30;;
23868;SDS011;12115;47.128;15.422;2023-03-14T07:10:23;4.88;;;2.10;;
23868;SDS011;12115;47.128;15.422;2023-03-14T07:12:50;5.38;;;2.15;;
23868;SDS011;12115;47.128;15.422;2023-03-14T07:15:24;10.48;;;2.42;;
23868;SDS011;12115;47.128;15.422;2023-03-14T07:21:22;3.75;;;1.88;;
23868;SDS011;12115;47.128;15.422;2023-03-14T07:24:02;6.65;;;2.17;;
23868;SDS011;12115;47.128;15.422;2023-03-14T07:26:31;5.47;;;1.70;;
23868;SDS011;12115;47.128;15.422;2023-03-14T07:29:11;5.78;;;1.90;;
23868;SDS011;12115;47.128;15.422;2023-03-14T07:31:40;5.93;;;2.10;;
23868;SDS011;12115;47.128;15.422;2023-03-14T07:34:08;9.52;;;1.85;;
23868;SDS011;12115;47.128;15.422;2023-03-14T07:36:39;7.53;;;1.80;;
23868;SDS011;12115;47.128;15.422;2023-03-14T07:39:15;3.40;;;1.58;;
23868;SDS011;12115;47.128;15.422;2023-03-14T07:42:01;3.20;;;1.52;;
23868;SDS011;12115;47.128;15.422;2023-03-14T07:44:47;6.00;;;1.85;;
23868;SDS011;12115;47.128;15.422;2023-03-14T07:47:14;3.33;;;1.58;;
23868;SDS011;12115;47.128;15.422;2023-03-14T07:49:42;4.07;;;1.67;;
23868;SDS011;12115;47.128;15.422;2023-03-14T07:52:12;7.13;;;1.77;;
23868;SDS011;12115;47.128;15.422;2023-03-14T07:54:39;7.90;;;1.80;;
23868;SDS011;12115;47.128;15.422;2023-03-14T07:57:16;6.35;;;1.80;;
23868;SDS011;12115;47.128;15.422;2023-03-14T07:59:44;6.07;;;1.40;;
23868;SDS011;12115;47.128;15.422;2023-03-14T08:05:10;7.72;;;1.52;;
23868;SDS011;12115;47.128;15.422;2023-03-14T08:07:37;3.75;;;1.60;;
23868;SDS011;12115;47.128;15.422;2023-03-14T08:10:14;4.70;;;1.75;;
23868;SDS011;12115;47.128;15.422;2023-03-14T08:12:55;3.85;;;1.50;;
23868;SDS011;12115;47.128;15.422;2023-03-14T08:15:24;4.97;;;1.83;;
23868;SDS011;12115;47.128;15.422;2023-03-14T08:17:54;3.88;;;1.50;;
23868;SDS011;12115;47.128;15.422;2023-03-14T08:20:24;5.13;;;1.67;;
23868;SDS011;12115;47.128;15.422;2023-03-14T08:23:01;4.45;;;1.55;;
23868;SDS011;12115;47.128;15.422;2023-03-14T08:25:28;4.55;;;1.60;;
23868;SDS011;12115;47.128;15.422;2023-03-14T08:27:56;3.53;;;1.50;;
23868;SDS011;12115;47.128;15.422;2023-03-14T08:30:23;4.97;;;1.98;;
23868;SDS011;12115;47.128;15.422;2023-03-14T08:32:53;4.88;;;1.33;;
23868;SDS011;12115;47.128;15.422;2023-03-14T08:35:24;5.40;;;1.60;;
23868;SDS011;12115;47.128;15.422;2023-03-14T08:37:52;6.13;;;1.70;;
23868;SDS011;12115;47.128;15.422;2023-03-14T08:40:20;3.85;;;1.50;;
23868;SDS011;12115;47.128;15.422;2023-03-14T08:42:47;4.15;;;1.67;;
23868;SDS011;12115;47.128;15.422;2023-03-14T08:45:15;3.92;;;1.92;;
23868;SDS011;12115;47.128;15.422;2023-03-14T08:47:43;7.63;;;1.80;;
23868;SDS011;12115;47.128;15.422;2023-03-14T08:50:16;7.38;;;2.20;;
23868;SDS011;12115;47.128;15.422;2023-03-14T08:53:19;4.10;;;1.60;;
23868;SDS011;12115;47.128;15.422;2023-03-14T08:55:52;4.53;;;1.52;;
23868;SDS011;12115;47.128;15.422;2023-03-14T08:58:20;7.57;;;2.03;;
23868;SDS011;12115;47.128;15.422;2023-03-14T09:00:50;4.65;;;1.55;;
23868;SDS011;12115;47.128;15.422;2023-03-14T09:03:17;5.32;;;1.65;;
23868;SDS011;12115;47.128;15.422;2023-03-14T09:05:45;3.40;;;1.65;;
23868;SDS011;12115;47.128;15.422;2023-03-14T09:08:13;3.25;;;1.88;;
23868;SDS011;12115;47.128;15.422;2023-03-14T09:13:59;4.75;;;1.83;;
23868;SDS011;12115;47.128;15.422;2023-03-14T09:16:35;5.07;;;1.45;;
23868;SDS011;12115;47.128;15.422;2023-03-14T09:19:03;3.95;;;1.50;;
23868;SDS011;12115;47.128;15.422;2023-03-14T09:21:30;3.42;;;1.50;;
23868;SDS011;12115;47.128;15.422;2023-03-14T09:23:57;5.10;;;1.52;;
23868;SDS011;12115;47.128;15.422;2023-03-14T09:26:25;5.68;;;1.50;;
23868;SDS011;12115;47.128;15.422;2023-03-14T09:28:52;4.15;;;1.48;;
23868;SDS011;12115;47.128;15.422;2023-03-14T09:34:16;4.55;;;1.60;;
23868;SDS011;12115;47.128;15.422;2023-03-14T09:36:43;3.40;;;1.35;;
23868;SDS011;12115;47.128;15.422;2023-03-14T09:39:11;3.85;;;1.60;;
23868;SDS011;12115;47.128;15.422;2023-03-14T09:41:43;5.00;;;1.50;;
23868;SDS011;12115;47.128;15.422;2023-03-14T09:46:48;5.63;;;1.92;;
23868;SDS011;12115;47.128;15.422;2023-03-14T09:52:11;3.72;;;1.63;;
23868;SDS011;12115;47.128;15.422;2023-03-14T10:00:37;5.77;;;1.43;;
23868;SDS011;12115;47.128;15.422;2023-03-14T10:05:49;3.40;;;1.42;;
23868;SDS011;12115;47.128;15.422;2023-03-14T10:11:20;10.32;;;1.67;;
23868;SDS011;12115;47.128;15.422;2023-03-14T10:13:48;3.10;;;1.38;;
23868;SDS011;12115;47.128;15.422;2023-03-14T10:17:09;4.68;;;1.73;;
23868;SDS011;12115;47.128;15.422;2023-03-14T10:19:52;5.25;;;1.48;;
23868;SDS011;12115;47.128;15.422;2023-03-14T10:22:24;6.28;;;1.77;;
23868;SDS011;12115;47.128;15.422;2023-03-14T10:25:23;6.72;;;1.67;;
23868;SDS011;12115;47.128;15.422;2023-03-14T10:27:58;3.00;;;1.05;;
23868;SDS011;12115;47.128;15.422;2023-03-14T10:30:27;5.20;;;1.20;;
23868;SDS011;12115;47.128;15.422;2023-03-14T10:38:32;3.88;;;1.00;;
23868;SDS011;12115;47.128;15.422;2023-03-14T10:41:01;4.03;;;1.40;;
23868;SDS011;12115;47.128;15.422;2023-03-14T10:43:50;2.05;;;0.98;;
23868;SDS011;12115;47.128;15.422;2023-03-14T10:46:20;7.97;;;1.13;;
23868;SDS011;12115;47.128;15.422;2023-03-14T10:49:22;2.75;;;1.25;;
23868;SDS011;12115;47.128;15.422;2023-03-14T10:55:11;2.55;;;0.90;;
23868;SDS011;12115;47.128;15.422;2023-03-14T10:57:40;3.28;;;0.98;;
23868;SDS011;12115;47.128;15.422;2023-03-14T11:00:18;1.55;;;0.65;;
23868;SDS011;12115;47.128;15.422;2023-03-14T11:06:02;0.85;;;0.40;;
23868;SDS011;12115;47.128;15.422;2023-03-14T11:16:58;1.38;;;0.30;;
23868;SDS011;12115;47.128;15.422;2023-03-14T11:22:28;2.17;;;0.45;;
23868;SDS011;12115;47.128;15.422;2023-03-14T11:27:45;0.60;;;0.13;;
23868;SDS011;12115;47.128;15.422;2023-03-14T11:33:29;3.30;;;0.38;;
23868;SDS011;12115;47.128;15.422;2023-03-14T11:39:00;0.93;;;0.10;;
23868;SDS011;12115;47.128;15.422;2023-03-14T11:41:33;2.47;;;0.20;;
23868;SDS011;12115;47.128;15.422;2023-03-14T11:44:39;1.80;;;0.40;;
23868;SDS011;12115;47.128;15.422;2023-03-14T11:47:10;1.17;;;0.15;;
23868;SDS011;12115;47.128;15.422;2023-03-14T11:50:02;4.70;;;0.20;;
23868;SDS011;12115;47.128;15.422;2023-03-14T11:58:09;0.40;;;0.20;;
23868;SDS011;12115;47.128;15.422;2023-03-14T12:00:39;0.63;;;0.22;;
23868;SDS011;12115;47.128;15.422;2023-03-14T12:09:20;0.38;;;0.25;;
23868;SDS011;12115;47.128;15.422;2023-03-14T12:14:36;0.40;;;0.20;;
23868;SDS011;12115;47.128;15.422;2023-03-14T12:25:42;2.97;;;0.20;;
23868;SDS011;12115;47.128;15.422;2023-03-14T12:30:42;1.55;;;0.30;;
23868;SDS011;12115;47.128;15.422;2023-03-14T12:35:48;2.90;;;0.35;;
23868;SDS011;12115;47.128;15.422;2023-03-14T12:41:38;5.13;;;0.32;;
23868;SDS011;12115;47.128;15.422;2023-03-14T12:46:57;0.25;;;0.10;;
23868;SDS011;12115;47.128;15.422;2023-03-14T12:49:41;2.30;;;0.20;;
23868;SDS011;12115;47.128;15.422;2023-03-14T12:52:22;1.98;;;0.20;;
23868;SDS011;12115;47.128;15.422;2023-03-14T12:55:36;1.95;;;0.20;;
23868;SDS011;12115;47.128;15.422;2023-03-14T13:01:17;1.55;;;0.22;;
23868;SDS011;12115;47.128;15.422;2023-03-14T13:03:47;0.20;;;0.20;;
23868;SDS011;12115;47.128;15.422;2023-03-14T13:14:43;1.17;;;0.30;;
23868;SDS011;12115;47.128;15.422;2023-03-14T13:17:14;4.40;;;0.70;;
23868;SDS011;12115;47.128;15.422;2023-03-14T13:20:03;1.58;;;0.20;;
23868;SDS011;12115;47.128;15.422;2023-03-14T13:22:38;0.63;;;0.30;;
23868;SDS011;12115;47.128;15.422;2023-03-14T13:25:12;1.02;;;0.30;;
23868;SDS011;12115;47.128;15.422;2023-03-14T13:27:40;0.90;;;0.40;;
23868;SDS011;12115;47.128;15.422;2023-03-14T13:30:24;1.85;;;0.30;;
23868;SDS011;12115;47.128;15.422;2023-03-14T13:32:55;2.45;;;0.40;;
23868;SDS011;12115;47.128;15.422;2023-03-14T13:35:48;1.30;;;0.40;;
23868;SDS011;12115;47.128;15.422;2023-03-14T13:38:24;0.68;;;0.35;;
23868;SDS011;12115;47.128;15.422;2023-03-14T13:40:55;0.57;;;0.30;;
23868;SDS011;12115;47.128;15.422;2023-03-14T13:46:21;5.53;;;0.50;;
23868;SDS011;12115;47.128;15.422;2023-03-14T13:48:56;2.40;;;0.80;;
23868;SDS011;12115;47.128;15.422;2023-03-14T13:51:27;2.20;;;0.70;;
23868;SDS011;12115;47.128;15.422;2023-03-14T13:53:58;1.93;;;0.57;;
23868;SDS011;12115;47.128;15.422;2023-03-14T13:56:27;1.55;;;0.60;;
23868;SDS011;12115;47.128;15.422;2023-03-14T14:01:51;4.75;;;0.70;;
23868;SDS011;12115;47.128;15.422;2023-03-14T14:04:21;3.70;;;0.63;;
23868;SDS011;12115;47.128;15.422;2023-03-14T14:06:55;1.95;;;0.70;;
23868;SDS011;12115;47.128;15.422;2023-03-14T14:09:26;1.58;;;0.50;;
23868;SDS011;12115;47.128;15.422;2023-03-14T14:14:48;1.60;;;0.60;;
23868;SDS011;12115;47.128;15.422;2023-03-14T14:17:32;3.15;;;0.60;;
23868;SDS011;12115;47.128;15.422;2023-03-14T14:20:26;4.82;;;0.90;;
23868;SDS011;12115;47.128;15.422;2023-03-14T14:23:05;2.83;;;0.75;;
23868;SDS011;12115;47.128;15.422;2023-03-14T14:25:36;2.30;;;0.98;;
23868;SDS011;12115;47.128;15.422;2023-03-14T14:28:14;2.90;;;0.95;;
23868;SDS011;12115;47.128;15.422;2023-03-14T14:30:42;1.77;;;0.90;;
23868;SDS011;12115;47.128;15.422;2023-03-14T14:33:18;2.28;;;0.60;;
23868;SDS011;12115;47.128;15.422;2023-03-14T14:35:50;3.88;;;0.90;;
23868;SDS011;12115;47.128;15.422;2023-03-14T14:38:26;4.95;;;0.93;;
23868;SDS011;12115;47.128;15.422;2023-03-14T14:40:59;3.40;;;1.20;;
23868;SDS011;12115;47.128;15.422;2023-03-14T14:43:30;4.65;;;1.00;;
23868;SDS011;12115;47.128;15.422;2023-03-14T14:46:05;2.30;;;0.63;;
23868;SDS011;12115;47.128;15.422;2023-03-14T14:48:38;3.35;;;0.60;;
23868;SDS011;12115;47.128;15.422;2023-03-14T14:51:07;2.88;;;0.90;;
23868;SDS011;12115;47.128;15.422;2023-03-14T14:53:42;4.43;;;0.65;;
23868;SDS011;12115;47.128;15.422;2023-03-14T14:58:47;3.70;;;0.55;;
23868;SDS011;12115;47.128;15.422;2023-03-14T15:01:18;1.73;;;0.50;;
23868;SDS011;12115;47.128;15.422;2023-03-14T15:03:52;4.57;;;0.60;;
23868;SDS011;12115;47.128;15.422;2023-03-14T15:06:27;2.35;;;0.50;;
23868;SDS011;12115;47.128;15.422;2023-03-14T15:08:56;1.67;;;0.65;;
23868;SDS011;12115;47.128;15.422;2023-03-14T15:11:25;0.82;;;0.52;;
23868;SDS011;12115;47.128;15.422;2023-03-14T15:13:53;0.55;;;0.50;;
23868;SDS011;12115;47.128;15.422;2023-03-14T15:16:21;2.25;;;0.90;;
23868;SDS011;12115;47.128;15.422;2023-03-14T15:18:54;1.48;;;0.65;;
23868;SDS011;12115;47.128;15.422;2023-03-14T15:21:24;1.33;;;0.60;;
23868;SDS011;12115;47.128;15.422;2023-03-14T15:24:08;2.00;;;0.50;;
23868;SDS011;12115;47.128;15.422;2023-03-14T15:26:36;4.00;;;0.60;;
23868;SDS011;12115;47.128;15.422;2023-03-14T15:29:04;1.23;;;0.60;;
23868;SDS011;12115;47.128;15.422;2023-03-14T15:31:46;3.17;;;0.50;;
23868;SDS011;12115;47.128;15.422;2023-03-14T15:35:02;2.17;;;1.00;;
23868;SDS011;12115;47.128;15.422;2023-03-14T15:37:30;2.67;;;0.75;;
23868;SDS011;12115;47.128;15.422;2023-03-14T15:39:57;1.30;;;1.10;;
23868;SDS011;12115;47.128;15.422;2023-03-14T15:42:25;2.17;;;1.98;;
23868;SDS011;12115;47.128;15.422;2023-03-14T15:44:52;1.80;;;1.15;;
23868;SDS011;12115;47.128;15.422;2023-03-14T15:47:19;1.00;;;0.80;;
23868;SDS011;12115;47.128;15.422;2023-03-14T15:49:48;1.15;;;0.90;;
23868;SDS011;12115;47.128;15.422;2023-03-14T15:52:15;2.20;;;0.90;;
23868;SDS011;12115;47.128;15.422;2023-03-14T15:54:43;3.75;;;1.40;;
23868;SDS011;12115;47.128;15.422;2023-03-14T15:57:10;2.08;;;1.42;;
23868;SDS011;12115;47.128;15.422;2023-03-14T15:59:38;1.63;;;0.63;;
23868;SDS011;12115;47.128;15.422;2023-03-14T16:02:06;1.55;;;0.57;;
23868;SDS011;12115;47.128;15.422;2023-03-14T16:04:35;0.70;;;0.50;;
23868;SDS011;12115;47.128;15.422;2023-03-14T16:07:02;1.75;;;0.77;;
23868;SDS011;12115;47.128;15.422;2023-03-14T16:09:29;1.88;;;0.80;;
23868;SDS011;12115;47.128;15.422;2023-03-14T16:11:57;1.80;;;0.95;;
23868;SDS011;12115;47.128;15.422;2023-03-14T16:14:25;1.10;;;0.60;;
23868;SDS011;12115;47.128;15.422;2023-03-14T16:16:52;2.33;;;0.68;;
23868;SDS011;12115;47.128;15.422;2023-03-14T16:19:24;1.48;;;0.85;;
23868;SDS011;12115;47.128;15.422;2023-03-14T16:21:57;1.85;;;0.80;;
23868;SDS011;12115;47.128;15.422;2023-03-14T16:24:24;1.13;;;0.65;;
23868;SDS011;12115;47.128;15.422;2023-03-14T16:26:52;1.85;;;0.70;;
23868;SDS011;12115;47.128;15.422;2023-03-14T16:31:51;0.85;;;0.57;;
23868;SDS011;12115;47.128;15.422;2023-03-14T16:34:22;0.82;;;0.50;;
23868;SDS011;12115;47.128;15.422;2023-03-14T16:36:49;0.60;;;0.60;;
23868;SDS011;12115;47.128;15.422;2023-03-14T16:39:18;2.08;;;0.50;;
23868;SDS011;12115;47.128;15.422;2023-03-14T16:41:46;1.35;;;0.38;;
23868;SDS011;12115;47.128;15.422;2023-03-14T16:44:14;2.05;;;0.52;;
23868;SDS011;12115;47.128;15.422;2023-03-14T16:46:41;3.60;;;0.60;;
23868;SDS011;12115;47.128;15.422;2023-03-14T16:49:09;2.75;;;1.00;;
23868;SDS011;12115;47.128;15.422;2023-03-14T16:51:36;1.88;;;1.05;;
23868;SDS011;12115;47.128;15.422;2023-03-14T16:54:04;3.00;;;1.33;;
23868;SDS011;12115;47.128;15.422;2023-03-14T16:56:32;11.02;;;5.40;;
23868;SDS011;12115;47.128;15.422;2023-03-14T16:58:59;8.57;;;4.43;;
23868;SDS011;12115;47.128;15.422;2023-03-14T17:01:27;24.90;;;11.45;;
23868;SDS011;12115;47.128;15.422;2023-03-14T17:03:55;31.00;;;14.00;;
23868;SDS011;12115;47.128;15.422;2023-03-14T17:06:24;10.32;;;4.53;;
23868;SDS011;12115;47.128;15.422;2023-03-14T17:08:53;20.25;;;8.77;;
23868;SDS011;12115;47.128;15.422;2023-03-14T17:11:38;3.03;;;1.50;;
23868;SDS011;12115;47.128;15.422;2023-03-14T17:14:06;2.83;;;1.75;;
23868;SDS011;12115;47.128;15.422;2023-03-14T17:16:33;15.98;;;6.55;;
23868;SDS011;12115;47.128;15.422;2023-03-14T17:19:03;11.32;;;5.57;;
23868;SDS011;12115;47.128;15.422;2023-03-14T17:21:32;8.57;;;4.15;;
23868;SDS011;12115;47.128;15.422;2023-03-14T17:24:00;2.58;;;1.02;;
23868;SDS011;12115;47.128;15.422;2023-03-14T17:26:27;1.13;;;0.80;;
23868;SDS011;12115;47.128;15.422;2023-03-14T17:28:55;2.70;;;1.35;;
23868;SDS011;12115;47.128;15.422;2023-03-14T17:31:25;0.77;;;0.70;;
23868;SDS011;12115;47.128;15.422;2023-03-14T17:33:54;0.82;;;0.50;;
23868;SDS011;12115;47.128;15.422;2023-03-14T17:36:22;0.63;;;0.50;;